createdAt,value
2023-04-10T00:00:57.106Z,48.77
2023-04-10T00:03:24.899Z,48.02
2023-04-10T00:05:54.426Z,48.37
2023-04-10T00:08:25.348Z,48.20
2023-04-10T00:10:53.262Z,48.32
2023-04-10T00:13:20.316Z,48.12
2023-04-10T00:15:48.185Z,48.30
2023-04-10T00:18:14.812Z,48.32
2023-04-10T00:20:41.771Z,48.67
2023-04-10T00:23:08.336Z,48.78
2023-04-10T00:25:35.010Z,49.05
2023-04-10T00:28:01.578Z,49.34
2023-04-10T00:30:28.209Z,49.36
2023-04-10T00:32:54.852Z,49.31
2023-04-10T00:35:21.459Z,49.14
2023-04-10T00:37:50.071Z,49.20
2023-04-10T00:40:16.779Z,48.90
2023-04-10T00:42:43.464Z,49.19
2023-04-10T00:45:10.619Z,49.23
2023-04-10T00:47:37.975Z,48.81
2023-04-10T00:50:05.518Z,48.99
2023-04-10T00:52:32.539Z,48.90
2023-04-10T00:54:59.179Z,49.22
2023-04-10T00:57:27.027Z,49.17
2023-04-10T00:59:53.967Z,48.97
2023-04-10T01:02:20.577Z,49.33
2023-04-10T01:04:48.130Z,49.19
2023-04-10T01:07:33.576Z,48.89
2023-04-10T01:10:08.689Z,48.97
2023-04-10T01:12:57.610Z,49.09
2023-04-10T01:15:28.507Z,49.16
2023-04-10T01:18:04.002Z,49.37
2023-04-10T01:20:35.978Z,49.18
2023-04-10T01:23:27.892Z,49.36
2023-04-10T01:26:01.874Z,49.22
2023-04-10T01:28:57.199Z,49.32
2023-04-10T01:32:04.622Z,49.78
2023-04-10T01:34:43.732Z,49.45
2023-04-10T01:37:31.830Z,49.45
2023-04-10T01:40:03.965Z,49.39
2023-04-10T01:42:38.928Z,49.69
2023-04-10T01:45:09.102Z,49.51
2023-04-10T01:47:36.535Z,49.20
2023-04-10T01:50:06.107Z,49.30
2023-04-10T01:52:34.025Z,49.52
2023-04-10T01:55:08.779Z,49.52
2023-04-10T01:57:44.034Z,49.63
2023-04-10T02:00:11.161Z,49.69
2023-04-10T02:02:44.536Z,49.68
2023-04-10T02:05:11.524Z,49.74
2023-04-10T02:07:57.171Z,50.06
2023-04-10T02:10:41.006Z,49.92
2023-04-10T02:13:11.403Z,50.07
2023-04-10T02:15:42.647Z,49.68
2023-04-10T02:18:11.218Z,49.65
2023-04-10T02:20:37.910Z,49.43
2023-04-10T02:23:05.532Z,49.61
2023-04-10T02:25:35.855Z,49.77
2023-04-10T02:28:06.097Z,50.10
2023-04-10T02:30:33.365Z,50.15
2023-04-10T02:33:00.821Z,49.94
2023-04-10T02:35:29.709Z,50.32
2023-04-10T02:37:56.586Z,50.10
2023-04-10T02:40:23.284Z,50.00
2023-04-10T02:42:56.611Z,50.08
2023-04-10T02:45:23.183Z,50.46
2023-04-10T02:47:49.841Z,50.04
2023-04-10T02:50:18.022Z,50.24
2023-04-10T02:52:46.027Z,50.49
2023-04-10T02:55:12.705Z,50.27
2023-04-10T02:57:42.551Z,50.34
2023-04-10T03:00:10.221Z,50.56
2023-04-10T03:03:01.562Z,50.24
2023-04-10T03:05:36.394Z,49.95
2023-04-10T03:08:03.067Z,50.41
2023-04-10T03:10:29.644Z,50.10
2023-04-10T03:12:56.336Z,50.49
2023-04-10T03:15:22.902Z,50.07
2023-04-10T03:17:49.517Z,50.28
2023-04-10T03:20:16.296Z,49.86
2023-04-10T03:22:42.919Z,49.92
2023-04-10T03:25:10.720Z,50.45
2023-04-10T03:27:38.161Z,50.25
2023-04-10T03:30:05.380Z,50.67
2023-04-10T03:32:39.028Z,50.27
2023-04-10T03:35:06.024Z,50.51
2023-04-10T03:37:33.614Z,50.41
2023-04-10T03:40:00.203Z,50.09
2023-04-10T03:42:27.095Z,50.43
2023-04-10T03:44:54.749Z,50.13
2023-04-10T03:47:21.314Z,49.91
2023-04-10T03:49:50.673Z,50.54
2023-04-10T03:52:17.271Z,50.90
2023-04-10T03:54:44.884Z,50.78
2023-04-10T03:57:22.837Z,50.97
2023-04-10T03:59:51.542Z,50.89
2023-04-10T04:02:18.661Z,50.87
2023-04-10T04:04:45.788Z,50.47
2023-04-10T04:07:20.105Z,50.19
2023-04-10T04:10:14.341Z,50.37
2023-04-10T04:13:00.774Z,50.73
2023-04-10T04:15:39.739Z,50.22
2023-04-10T04:18:38.694Z,50.28
2023-04-10T04:21:18.691Z,50.66
2023-04-10T04:24:06.080Z,50.36
2023-04-10T04:27:11.557Z,50.76
2023-04-10T04:30:01.378Z,51.05
2023-04-10T04:32:46.692Z,50.87
2023-04-10T04:35:26.293Z,50.53
2023-04-10T04:38:13.179Z,50.27
2023-04-10T04:40:39.728Z,50.89
2023-04-10T04:43:19.007Z,50.09
2023-04-10T04:45:57.946Z,50.39
2023-04-10T04:48:47.486Z,50.23
2023-04-10T04:51:40.186Z,50.11
2023-04-10T04:54:11.335Z,50.40
2023-04-10T04:56:41.023Z,49.70
2023-04-10T04:59:30.499Z,50.03
2023-04-10T05:01:59.778Z,50.20
2023-04-10T05:04:52.528Z,50.08
2023-04-10T05:07:42.119Z,49.72
2023-04-10T05:10:28.916Z,49.75
2023-04-10T05:13:09.262Z,50.06
2023-04-10T05:16:05.719Z,49.65
2023-04-10T05:18:51.063Z,49.58
2023-04-10T05:21:37.493Z,49.04
2023-04-10T05:24:30.133Z,48.89
2023-04-10T05:27:22.862Z,48.83
2023-04-10T05:30:08.560Z,48.29
2023-04-10T05:32:53.320Z,48.64
2023-04-10T05:35:19.901Z,48.40
2023-04-10T05:38:21.632Z,48.03
2023-04-10T05:41:06.546Z,48.11
2023-04-10T05:43:38.131Z,48.01
2023-04-10T05:46:27.554Z,47.71
2023-04-10T05:49:12.774Z,47.45
2023-04-10T05:52:02.183Z,47.38
2023-04-10T05:54:37.786Z,46.76
2023-04-10T05:57:25.807Z,46.86
2023-04-10T06:00:05.276Z,46.61
2023-04-10T06:02:41.395Z,46.57
2023-04-10T06:05:14.818Z,46.20
2023-04-10T06:07:42.652Z,45.82
2023-04-10T06:10:10.674Z,45.85
2023-04-10T06:12:37.549Z,45.14
2023-04-10T06:15:06.382Z,44.64
2023-04-10T06:17:35.396Z,44.58
2023-04-10T06:20:05.429Z,44.49
2023-04-10T06:22:32.575Z,44.22
2023-04-10T06:24:59.105Z,44.06
2023-04-10T06:27:25.791Z,43.38
2023-04-10T06:29:52.535Z,42.85
2023-04-10T06:32:21.812Z,42.76
2023-04-10T06:34:48.731Z,42.29
2023-04-10T06:37:16.170Z,42.36
2023-04-10T06:39:42.861Z,41.96
2023-04-10T06:42:09.476Z,41.07
2023-04-10T06:45:00.222Z,41.39
2023-04-10T06:47:26.802Z,41.06
2023-04-10T06:49:53.321Z,41.02
2023-04-10T06:52:20.481Z,40.98
2023-04-10T06:54:47.243Z,40.41
2023-04-10T06:57:13.900Z,40.51
2023-04-10T06:59:40.553Z,39.45
2023-04-10T07:02:07.734Z,39.65
2023-04-10T07:04:34.418Z,39.41
2023-04-10T07:07:01.232Z,38.55
2023-04-10T07:09:29.971Z,38.58
2023-04-10T07:11:56.840Z,39.22
2023-04-10T07:14:23.383Z,38.31
2023-04-10T07:16:50.069Z,38.00
2023-04-10T07:19:16.752Z,37.02
2023-04-10T07:21:43.776Z,37.54
2023-04-10T07:24:10.386Z,37.49
2023-04-10T07:26:36.919Z,37.04
2023-04-10T07:29:03.459Z,36.37
2023-04-10T07:31:30.103Z,36.64
2023-04-10T07:33:56.767Z,36.52
2023-04-10T07:36:23.352Z,36.03
2023-04-10T07:38:49.897Z,35.73
2023-04-10T07:41:16.478Z,36.30
2023-04-10T07:43:43.037Z,35.76
2023-04-10T07:46:09.722Z,35.79
2023-04-10T07:48:36.561Z,35.50
2023-04-10T07:51:03.250Z,35.46
2023-04-10T07:53:29.875Z,35.30
2023-04-10T07:55:56.416Z,35.62
2023-04-10T07:58:23.010Z,35.25
2023-04-10T08:00:49.575Z,35.44
2023-04-10T08:03:16.494Z,34.80
2023-04-10T08:05:43.310Z,34.43
2023-04-10T08:08:09.863Z,34.57
2023-04-10T08:10:37.853Z,35.07
2023-04-10T08:13:04.960Z,34.27
2023-04-10T08:15:31.602Z,34.79
2023-04-10T08:17:58.240Z,33.86
2023-04-10T08:20:24.887Z,33.86
2023-04-10T08:22:51.445Z,33.60
2023-04-10T08:25:18.244Z,33.56
2023-04-10T08:27:44.777Z,32.88
2023-04-10T08:30:11.562Z,32.43
2023-04-10T08:32:38.944Z,32.72
2023-04-10T08:35:06.008Z,32.51
2023-04-10T08:37:32.525Z,32.44
2023-04-10T08:39:59.052Z,31.85
2023-04-10T08:42:26.183Z,31.79
2023-04-10T08:44:52.978Z,31.10
2023-04-10T08:47:21.445Z,31.72
2023-04-10T08:49:54.272Z,31.63
2023-04-10T08:52:31.112Z,30.81
2023-04-10T08:54:59.873Z,31.76
2023-04-10T08:57:27.288Z,31.43
2023-04-10T08:59:53.860Z,30.36
2023-04-10T09:02:20.635Z,30.90
2023-04-10T09:04:52.434Z,30.16
2023-04-10T09:07:19.068Z,30.23
2023-04-10T09:09:45.680Z,29.57
2023-04-10T09:12:16.357Z,29.41
2023-04-10T09:14:43.314Z,30.48
2023-04-10T09:17:30.293Z,29.47
2023-04-10T09:19:56.920Z,29.32
2023-04-10T09:22:31.430Z,29.02
2023-04-10T09:24:59.363Z,28.91
2023-04-10T09:27:31.712Z,28.42
2023-04-10T09:29:58.877Z,28.07
2023-04-10T09:32:45.731Z,28.42
2023-04-10T09:35:14.223Z,27.93
2023-04-10T09:37:42.492Z,27.26
2023-04-10T09:40:25.784Z,27.62
2023-04-10T09:42:53.163Z,27.69
2023-04-10T09:45:20.713Z,27.91
2023-04-10T09:48:03.496Z,27.54
2023-04-10T09:50:43.463Z,28.85
2023-04-10T09:53:15.545Z,28.36
2023-04-10T09:55:43.327Z,26.43
2023-04-10T09:58:11.013Z,26.07
2023-04-10T10:00:43.335Z,27.05
2023-04-10T10:03:12.366Z,26.64
2023-04-10T10:05:47.845Z,25.57
2023-04-10T10:08:15.925Z,26.02
2023-04-10T10:10:51.553Z,25.18
2023-04-10T10:13:29.527Z,25.23
2023-04-10T10:16:19.068Z,24.72
2023-04-10T10:19:11.192Z,24.91
2023-04-10T10:21:38.867Z,25.29
2023-04-10T10:24:08.939Z,25.13
2023-04-10T10:26:38.759Z,24.55
2023-04-10T10:29:10.624Z,24.51
2023-04-10T10:31:38.162Z,24.98
2023-04-10T10:34:07.335Z,24.64
2023-04-10T10:36:34.890Z,24.22
2023-04-10T10:39:20.141Z,24.31
2023-04-10T10:41:58.804Z,22.95
2023-04-10T10:44:45.472Z,23.53
2023-04-10T10:47:19.645Z,23.50
2023-04-10T10:50:02.494Z,22.53
2023-04-10T10:52:45.918Z,22.52
2023-04-10T10:55:24.933Z,22.74
2023-04-10T10:57:53.352Z,22.14
2023-04-10T11:00:24.844Z,21.11
2023-04-10T11:03:10.692Z,21.40
2023-04-10T11:05:59.601Z,20.35
2023-04-10T11:08:32.261Z,19.17
2023-04-10T11:11:28.392Z,18.01
2023-04-10T11:13:57.604Z,17.73
2023-04-10T11:16:31.367Z,15.82
2023-04-10T11:19:13.032Z,14.08
2023-04-10T11:21:59.323Z,12.21
2023-04-10T11:24:26.635Z,11.94
2023-04-10T11:26:53.169Z,12.76
2023-04-10T11:29:28.728Z,12.92
2023-04-10T11:32:00.530Z,14.26
2023-04-10T11:34:27.579Z,13.67
2023-04-10T11:36:54.234Z,12.77
2023-04-10T11:39:21.524Z,12.54
2023-04-10T11:41:50.159Z,11.33
2023-04-10T11:44:25.728Z,11.16
2023-04-10T11:46:52.939Z,11.02
2023-04-10T11:49:22.381Z,10.67
2023-04-10T11:51:50.300Z,10.56
2023-04-10T11:54:19.359Z,9.83
2023-04-10T11:57:00.010Z,9.34
2023-04-10T11:59:27.306Z,9.05
2023-04-10T12:02:03.160Z,8.52
2023-04-10T12:04:30.202Z,8.40
2023-04-10T12:06:57.620Z,7.86
2023-04-10T12:09:24.178Z,8.16
2023-04-10T12:12:03.345Z,7.99
2023-04-10T12:14:38.372Z,7.92
2023-04-10T12:17:07.613Z,8.22
2023-04-10T12:19:35.301Z,8.40
2023-04-10T12:22:02.968Z,8.03
2023-04-10T12:24:43.609Z,8.46
2023-04-10T12:27:23.001Z,8.21
2023-04-10T12:29:51.423Z,8.52
2023-04-10T12:32:18.307Z,10.08
2023-04-10T12:34:58.695Z,10.20
2023-04-10T12:37:46.247Z,10.68
2023-04-10T12:40:13.549Z,9.98
2023-04-10T12:42:41.818Z,10.01
2023-04-10T12:45:10.131Z,10.52
2023-04-10T12:47:53.878Z,10.79
2023-04-10T12:50:24.197Z,9.81
2023-04-10T12:53:09.073Z,9.92
2023-04-10T12:55:35.717Z,8.71
2023-04-10T12:58:20.662Z,8.58
2023-04-10T13:00:47.797Z,8.27
2023-04-10T13:03:14.565Z,7.86
2023-04-10T13:05:41.401Z,8.44
2023-04-10T13:08:08.121Z,9.82
2023-04-10T13:10:37.148Z,10.60
2023-04-10T13:13:04.706Z,10.35
2023-04-10T13:15:34.453Z,9.94
2023-04-10T13:18:01.679Z,10.28
2023-04-10T13:20:30.134Z,10.63
2023-04-10T13:22:56.785Z,10.17
2023-04-10T13:25:23.450Z,9.98
2023-04-10T13:27:50.170Z,10.68
2023-04-10T13:30:16.676Z,9.80
2023-04-10T13:32:43.195Z,9.79
2023-04-10T13:35:09.755Z,10.97
2023-04-10T13:37:36.635Z,11.63
2023-04-10T13:40:04.151Z,11.14
2023-04-10T13:42:31.176Z,11.93
2023-04-10T13:44:57.731Z,12.63
2023-04-10T13:47:24.293Z,12.43
2023-04-10T13:49:50.885Z,12.81
2023-04-10T13:52:17.498Z,13.84
2023-04-10T13:54:44.083Z,12.98
2023-04-10T13:57:10.722Z,13.20
2023-04-10T13:59:37.303Z,12.25
2023-04-10T14:02:03.980Z,11.50
2023-04-10T14:04:30.742Z,11.11
2023-04-10T14:07:00.489Z,10.69
2023-04-10T14:09:27.247Z,10.74
2023-04-10T14:11:54.311Z,10.73
2023-04-10T14:14:23.992Z,10.89
2023-04-10T14:16:51.277Z,11.09
2023-04-10T14:19:17.884Z,10.78
2023-04-10T14:21:45.742Z,11.96
2023-04-10T14:24:12.296Z,12.63
2023-04-10T14:26:38.879Z,13.09
2023-04-10T14:29:07.882Z,13.36
2023-04-10T14:31:39.150Z,13.87
2023-04-10T14:34:10.670Z,13.73
2023-04-10T14:36:37.219Z,14.06
2023-04-10T14:39:04.131Z,14.49
2023-04-10T14:41:31.128Z,14.33
2023-04-10T14:43:57.843Z,14.31
2023-04-10T14:46:25.528Z,13.14
2023-04-10T14:48:52.117Z,12.60
2023-04-10T14:51:19.657Z,10.67
2023-04-10T14:53:46.262Z,10.10
2023-04-10T14:56:13.878Z,10.30
2023-04-10T14:58:40.850Z,11.69
2023-04-10T15:01:11.788Z,13.12
2023-04-10T15:03:39.769Z,12.75
2023-04-10T15:06:06.879Z,13.15
2023-04-10T15:08:33.454Z,13.12
2023-04-10T15:11:00.287Z,12.65
2023-04-10T15:13:26.843Z,10.14
2023-04-10T15:15:54.172Z,9.96
2023-04-10T15:18:20.811Z,10.00
2023-04-10T15:20:47.330Z,10.66
2023-04-10T15:23:13.846Z,11.72
2023-04-10T15:25:40.384Z,14.14
2023-04-10T15:28:08.212Z,15.22
2023-04-10T15:30:34.807Z,15.19
2023-04-10T15:33:01.438Z,15.61
2023-04-10T15:35:30.182Z,16.56
2023-04-10T15:37:57.152Z,17.04
2023-04-10T15:40:23.802Z,16.78
2023-04-10T15:42:50.466Z,16.50
2023-04-10T15:45:17.079Z,16.62
2023-04-10T15:47:46.775Z,16.99
2023-04-10T15:50:13.352Z,17.58
2023-04-10T15:52:39.943Z,17.96
2023-04-10T15:55:06.881Z,18.00
2023-04-10T15:57:33.403Z,18.14
2023-04-10T16:00:02.132Z,18.05
2023-04-10T16:02:32.298Z,18.48
2023-04-10T16:04:59.016Z,18.97
2023-04-10T16:07:25.612Z,19.02
2023-04-10T16:09:53.668Z,19.54
2023-04-10T16:12:20.246Z,20.18
2023-04-10T16:14:46.769Z,19.89
2023-04-10T16:17:13.323Z,20.89
2023-04-10T16:19:39.827Z,20.65
2023-04-10T16:22:06.436Z,20.81
2023-04-10T16:24:32.975Z,21.14
2023-04-10T16:26:59.795Z,21.68
2023-04-10T16:29:26.312Z,21.62
2023-04-10T16:31:52.903Z,21.07
2023-04-10T16:34:19.516Z,21.27
2023-04-10T16:36:46.035Z,21.84
2023-04-10T16:39:12.591Z,21.82
2023-04-10T16:41:39.321Z,22.50
2023-04-10T16:44:05.997Z,22.93
2023-04-10T16:46:33.149Z,22.57
2023-04-10T16:48:59.836Z,22.65
2023-04-10T16:51:26.406Z,23.18
2023-04-10T16:53:53.110Z,23.37
2023-04-10T16:56:19.638Z,23.63
2023-04-10T16:58:47.005Z,23.60
2023-04-10T17:01:21.718Z,23.68
2023-04-10T17:03:48.701Z,24.47
2023-04-10T17:06:15.997Z,24.77
2023-04-10T17:08:43.054Z,24.74
2023-04-10T17:11:09.581Z,25.04
2023-04-10T17:13:37.050Z,25.03
2023-04-10T17:16:05.136Z,25.20
2023-04-10T17:18:32.412Z,25.56
2023-04-10T17:20:58.962Z,25.67
2023-04-10T17:23:25.690Z,25.88
2023-04-10T17:25:52.441Z,26.26
2023-04-10T17:28:19.147Z,26.36
2023-04-10T17:30:45.777Z,26.59
2023-04-10T17:33:12.317Z,26.78
2023-04-10T17:35:38.860Z,27.06
2023-04-10T17:38:05.424Z,27.12
2023-04-10T17:40:32.047Z,27.28
2023-04-10T17:42:58.656Z,27.57
2023-04-10T17:45:25.232Z,27.69
2023-04-10T17:47:51.800Z,28.01
2023-04-10T17:50:18.628Z,28.25
2023-04-10T17:52:45.168Z,28.42
2023-04-10T17:55:11.762Z,28.53
2023-04-10T17:57:38.310Z,28.41
2023-04-10T18:00:08.937Z,28.71
2023-04-10T18:02:35.691Z,28.90
2023-04-10T18:05:03.423Z,29.04
2023-04-10T18:07:30.101Z,29.22
2023-04-10T18:09:56.660Z,29.04
2023-04-10T18:12:23.228Z,29.76
2023-04-10T18:14:49.824Z,29.36
2023-04-10T18:17:16.420Z,29.82
2023-04-10T18:19:43.024Z,29.83
2023-04-10T18:22:09.541Z,29.70
2023-04-10T18:24:36.050Z,30.10
2023-04-10T18:27:03.217Z,30.36
2023-04-10T18:29:31.095Z,30.26
2023-04-10T18:31:57.647Z,30.50
2023-04-10T18:34:24.209Z,30.34
2023-04-10T18:36:50.745Z,30.47
2023-04-10T18:39:17.311Z,30.75
2023-04-10T18:41:43.820Z,30.86
2023-04-10T18:44:10.666Z,30.76
2023-04-10T18:46:37.726Z,31.00
2023-04-10T18:49:04.540Z,30.91
2023-04-10T18:51:32.955Z,31.66
2023-04-10T18:54:01.101Z,31.10
2023-04-10T18:56:27.640Z,31.30
2023-04-10T18:58:54.463Z,31.41
2023-04-10T19:01:21.126Z,31.76
2023-04-10T19:03:50.860Z,31.93
2023-04-10T19:06:23.700Z,31.80
2023-04-10T19:08:50.968Z,31.99
2023-04-10T19:11:18.581Z,32.00
2023-04-10T19:13:45.233Z,32.33
2023-04-10T19:16:14.477Z,32.46
2023-04-10T19:18:41.463Z,32.77
2023-04-10T19:21:08.027Z,32.76
2023-04-10T19:23:35.120Z,32.72
2023-04-10T19:26:01.878Z,33.40
2023-04-10T19:28:29.399Z,33.28
2023-04-10T19:30:56.047Z,33.33
2023-04-10T19:33:22.677Z,33.42
2023-04-10T19:35:49.294Z,34.09
2023-04-10T19:38:15.879Z,33.62
2023-04-10T19:40:47.106Z,33.97
2023-04-10T19:43:13.640Z,34.34
2023-04-10T19:45:40.291Z,34.20
2023-04-10T19:48:09.684Z,34.20
2023-04-10T19:50:36.220Z,34.38
2023-04-10T19:53:02.797Z,34.39
2023-04-10T19:55:29.340Z,34.54
2023-04-10T19:57:55.990Z,34.77
2023-04-10T20:00:22.649Z,34.74
2023-04-10T20:02:49.252Z,34.84
2023-04-10T20:05:16.103Z,34.46
2023-04-10T20:07:42.741Z,35.08
2023-04-10T20:10:09.504Z,35.12
2023-04-10T20:12:36.109Z,35.54
2023-04-10T20:15:04.045Z,34.97
2023-04-10T20:17:30.953Z,35.18
2023-04-10T20:19:57.698Z,35.09
2023-04-10T20:22:24.415Z,35.20
2023-04-10T20:24:50.953Z,35.33
2023-04-10T20:27:17.574Z,35.42
2023-04-10T20:29:44.129Z,34.99
2023-04-10T20:32:10.703Z,34.92
2023-04-10T20:34:37.271Z,35.40
2023-04-10T20:37:05.407Z,35.51
2023-04-10T20:39:32.945Z,35.41
2023-04-10T20:41:59.519Z,35.72
2023-04-10T20:44:26.084Z,35.72
2023-04-10T20:46:52.821Z,35.68
2023-04-10T20:49:19.414Z,36.12
2023-04-10T20:51:47.124Z,36.26
2023-04-10T20:54:13.703Z,36.29
2023-04-10T20:56:43.532Z,36.16
2023-04-10T20:59:11.291Z,36.22
2023-04-10T21:01:38.398Z,36.46
2023-04-10T21:04:05.697Z,36.58
2023-04-10T21:06:35.975Z,36.41
2023-04-10T21:09:02.590Z,36.75
2023-04-10T21:11:29.195Z,36.38
2023-04-10T21:13:55.745Z,36.80
2023-04-10T21:16:22.367Z,36.38
2023-04-10T21:18:49.001Z,36.78
2023-04-10T21:21:15.896Z,36.76
2023-04-10T21:23:42.443Z,36.34
2023-04-10T21:26:08.967Z,36.80
2023-04-10T21:28:35.610Z,36.59
2023-04-10T21:31:02.222Z,36.86
2023-04-10T21:33:28.779Z,36.63
2023-04-10T21:35:55.978Z,37.02
2023-04-10T21:38:23.936Z,37.20
2023-04-10T21:40:54.069Z,36.79
2023-04-10T21:43:21.784Z,37.24
2023-04-10T21:45:48.523Z,36.95
2023-04-10T21:48:15.359Z,37.04
2023-04-10T21:50:42.346Z,37.07
2023-04-10T21:53:09.076Z,37.39
2023-04-10T21:55:35.687Z,37.73
2023-04-10T21:58:02.239Z,37.55
2023-04-10T22:00:29.070Z,37.43
2023-04-10T22:02:55.784Z,37.56
2023-04-10T22:05:24.292Z,37.81
2023-04-10T22:07:52.027Z,38.06
2023-04-10T22:10:18.853Z,37.83
2023-04-10T22:12:48.649Z,38.29
2023-04-10T22:15:16.010Z,37.80
2023-04-10T22:17:42.793Z,37.91
2023-04-10T22:20:09.984Z,38.04
2023-04-10T22:22:36.542Z,37.96
2023-04-10T22:25:03.183Z,37.96
2023-04-10T22:27:29.758Z,37.94
2023-04-10T22:30:03.258Z,37.62
2023-04-10T22:32:31.024Z,37.59
2023-04-10T22:34:58.947Z,37.82
2023-04-10T22:37:26.199Z,37.94
2023-04-10T22:39:52.831Z,37.70
2023-04-10T22:42:19.388Z,37.30
2023-04-10T22:44:45.922Z,37.38
2023-04-10T22:47:12.448Z,37.12
2023-04-10T22:49:39.045Z,37.29
2023-04-10T22:52:05.606Z,36.83
2023-04-10T22:54:32.147Z,36.80
2023-04-10T22:56:58.706Z,36.40
2023-04-10T22:59:25.297Z,35.99
2023-04-10T23:01:51.943Z,36.69
2023-04-10T23:04:18.605Z,36.34
2023-04-10T23:06:45.160Z,36.25
2023-04-10T23:09:11.776Z,36.13
2023-04-10T23:11:38.737Z,35.97
2023-04-10T23:14:05.266Z,35.57
2023-04-10T23:16:31.905Z,35.81
2023-04-10T23:18:58.623Z,35.62
2023-04-10T23:21:25.208Z,35.79
2023-04-10T23:23:51.715Z,35.79
2023-04-10T23:26:18.280Z,35.95
2023-04-10T23:28:44.906Z,35.89
2023-04-10T23:31:11.482Z,35.39
2023-04-10T23:33:38.123Z,35.38
2023-04-10T23:36:05.504Z,35.42
2023-04-10T23:38:32.069Z,35.28
2023-04-10T23:40:58.662Z,35.30
2023-04-10T23:43:25.207Z,35.39
2023-04-10T23:45:51.719Z,35.47
2023-04-10T23:48:18.259Z,35.30
2023-04-10T23:50:44.810Z,35.15
2023-04-10T23:53:12.779Z,35.44
2023-04-10T23:55:41.847Z,35.18
2023-04-10T23:58:08.630Z,34.80
